sensor_id;sensor_type;location;lat;lon;timestamp;temperature;humidity
75088;HTU21D;63664;44.868;40.600;2023-05-01T00:02:32;10.09;98.99
75088;HTU21D;63664;44.868;40.600;2023-05-01T00:05:02;10.09;98.99
75088;HTU21D;63664;44.868;40.600;2023-05-01T00:07:29;10.08;99.04
75088;HTU21D;63664;44.868;40.600;2023-05-01T00:09:58;10.09;99.12
75088;HTU21D;63664;44.868;40.600;2023-05-01T00:12:25;10.06;99.19
75088;HTU21D;63664;44.868;40.600;2023-05-01T00:14:55;10.06;99.24
75088;HTU21D;63664;44.868;40.600;2023-05-01T00:17:23;10.07;99.28
75088;HTU21D;63664;44.868;40.600;2023-05-01T00:19:53;10.09;99.32
75088;HTU21D;63664;44.868;40.600;2023-05-01T00:22:21;10.09;99.29
75088;HTU21D;63664;44.868;40.600;2023-05-01T00:24:50;10.10;99.34
75088;HTU21D;63664;44.868;40.600;2023-05-01T00:27:16;10.10;99.34
75088;HTU21D;63664;44.868;40.600;2023-05-01T00:29:42;10.11;99.40
75088;HTU21D;63664;44.868;40.600;2023-05-01T00:32:08;10.12;99.45
75088;HTU21D;63664;44.868;40.600;2023-05-01T00:34:37;10.14;99.47
75088;HTU21D;63664;44.868;40.600;2023-05-01T00:37:03;10.16;99.48
75088;HTU21D;63664;44.868;40.600;2023-05-01T00:39:32;10.18;99.51
75088;HTU21D;63664;44.868;40.600;2023-05-01T00:41:58;10.18;99.59
75088;HTU21D;63664;44.868;40.600;2023-05-01T00:44:25;10.19;99.61
75088;HTU21D;63664;44.868;40.600;2023-05-01T00:46:51;10.18;99.64
75088;HTU21D;63664;44.868;40.600;2023-05-01T00:49:25;10.16;99.71
75088;HTU21D;63664;44.868;40.600;2023-05-01T00:51:52;10.16;99.72
75088;HTU21D;63664;44.868;40.600;2023-05-01T00:54:19;10.18;99.76
75088;HTU21D;63664;44.868;40.600;2023-05-01T00:56:47;10.18;99.77
75088;HTU21D;63664;44.868;40.600;2023-05-01T00:59:13;10.18;99.80
75088;HTU21D;63664;44.868;40.600;2023-05-01T01:01:43;10.18;99.83
75088;HTU21D;63664;44.868;40.600;2023-05-01T01:04:10;10.16;99.84
75088;HTU21D;63664;44.868;40.600;2023-05-01T01:09:55;10.14;99.94
75088;HTU21D;63664;44.868;40.600;2023-05-01T01:12:33;10.16;99.91
75088;HTU21D;63664;44.868;40.600;2023-05-01T01:15:04;10.19;99.91
75088;HTU21D;63664;44.868;40.600;2023-05-01T01:21:04;10.19;99.96
75088;HTU21D;63664;44.868;40.600;2023-05-01T01:35:06;10.16;100.09
75088;HTU21D;63664;44.868;40.600;2023-05-01T01:37:40;10.19;100.15
75088;HTU21D;63664;44.868;40.600;2023-05-01T01:40:14;10.18;100.15
75088;HTU21D;63664;44.868;40.600;2023-05-01T01:43:04;10.19;100.25
75088;HTU21D;63664;44.868;40.600;2023-05-01T01:45:39;10.20;100.22
75088;HTU21D;63664;44.868;40.600;2023-05-01T01:48:11;10.20;100.24
75088;HTU21D;63664;44.868;40.600;2023-05-01T01:50:44;10.15;100.35
75088;HTU21D;63664;44.868;40.600;2023-05-01T01:53:18;10.15;100.38
75088;HTU21D;63664;44.868;40.600;2023-05-01T01:55:46;10.15;100.41
75088;HTU21D;63664;44.868;40.600;2023-05-01T01:58:17;10.16;100.46
75088;HTU21D;63664;44.868;40.600;2023-05-01T02:00:50;10.16;100.45
75088;HTU21D;63664;44.868;40.600;2023-05-01T02:03:19;10.16;100.50
75088;HTU21D;63664;44.868;40.600;2023-05-01T02:05:47;10.18;100.55
75088;HTU21D;63664;44.868;40.600;2023-05-01T02:08:15;10.19;100.54
75088;HTU21D;63664;44.868;40.600;2023-05-01T02:10:47;10.20;100.60
75088;HTU21D;63664;44.868;40.600;2023-05-01T02:13:19;10.21;100.58
75088;HTU21D;63664;44.868;40.600;2023-05-01T02:15:50;10.20;100.62
75088;HTU21D;63664;44.868;40.600;2023-05-01T02:18:19;10.18;100.73
75088;HTU21D;63664;44.868;40.600;2023-05-01T02:20:49;10.16;100.76
75088;HTU21D;63664;44.868;40.600;2023-05-01T02:23:18;10.15;100.79
75088;HTU21D;63664;44.868;40.600;2023-05-01T02:25:44;10.13;100.81
75088;HTU21D;63664;44.868;40.600;2023-05-01T02:28:21;10.15;100.90
75088;HTU21D;63664;44.868;40.600;2023-05-01T02:30:48;10.15;100.86
75088;HTU21D;63664;44.868;40.600;2023-05-01T02:33:14;10.16;100.88
75088;HTU21D;63664;44.868;40.600;2023-05-01T02:35:46;10.18;100.89
75088;HTU21D;63664;44.868;40.600;2023-05-01T02:38:15;10.19;100.86
75088;HTU21D;63664;44.868;40.600;2023-05-01T02:40:55;10.20;100.89
75088;HTU21D;63664;44.868;40.600;2023-05-01T02:43:25;10.21;100.78
75088;HTU21D;63664;44.868;40.600;2023-05-01T02:45:52;10.23;100.84
75088;HTU21D;63664;44.868;40.600;2023-05-01T02:48:24;10.24;100.84
75088;HTU21D;63664;44.868;40.600;2023-05-01T02:50:53;10.25;100.87
75088;HTU21D;63664;44.868;40.600;2023-05-01T02:53:23;10.25;100.84
75088;HTU21D;63664;44.868;40.600;2023-05-01T02:55:54;10.25;100.83
75088;HTU21D;63664;44.868;40.600;2023-05-01T02:58:20;10.26;100.87
75088;HTU21D;63664;44.868;40.600;2023-05-01T03:00:48;10.26;100.90
75088;HTU21D;63664;44.868;40.600;2023-05-01T03:03:15;10.28;100.91
75088;HTU21D;63664;44.868;40.600;2023-05-01T03:05:42;10.26;100.93
75088;HTU21D;63664;44.868;40.600;2023-05-01T03:08:11;10.26;100.99
75088;HTU21D;63664;44.868;40.600;2023-05-01T03:10:40;10.27;100.96
75088;HTU21D;63664;44.868;40.600;2023-05-01T03:13:13;10.29;100.96
75088;HTU21D;63664;44.868;40.600;2023-05-01T03:15:43;10.33;100.93
75088;HTU21D;63664;44.868;40.600;2023-05-01T03:18:14;10.33;100.92
75088;HTU21D;63664;44.868;40.600;2023-05-01T03:20:52;10.38;100.89
75088;HTU21D;63664;44.868;40.600;2023-05-01T03:23:20;10.41;100.85
75088;HTU21D;63664;44.868;40.600;2023-05-01T03:25:46;10.42;100.81
75088;HTU21D;63664;44.868;40.600;2023-05-01T03:28:13;10.42;100.79
75088;HTU21D;63664;44.868;40.600;2023-05-01T03:30:43;10.46;100.78
75088;HTU21D;63664;44.868;40.600;2023-05-01T03:33:12;10.49;100.74
75088;HTU21D;63664;44.868;40.600;2023-05-01T03:35:43;10.52;100.70
75088;HTU21D;63664;44.868;40.600;2023-05-01T03:38:13;10.57;100.66
75088;HTU21D;63664;44.868;40.600;2023-05-01T03:41:11;10.63;100.50
75088;HTU21D;63664;44.868;40.600;2023-05-01T03:43:55;10.72;100.38
75088;HTU21D;63664;44.868;40.600;2023-05-01T03:46:48;10.81;100.24
75088;HTU21D;63664;44.868;40.600;2023-05-01T03:49:20;10.88;100.11
75088;HTU21D;63664;44.868;40.600;2023-05-01T03:51:50;10.95;100.03
75088;HTU21D;63664;44.868;40.600;2023-05-01T03:54:17;10.97;99.96
75088;HTU21D;63664;44.868;40.600;2023-05-01T03:57:11;10.99;99.97
75088;HTU21D;63664;44.868;40.600;2023-05-01T03:59:39;11.00;100.00
75088;HTU21D;63664;44.868;40.600;2023-05-01T04:02:10;11.03;100.02
75088;HTU21D;63664;44.868;40.600;2023-05-01T04:04:41;11.09;99.97
75088;HTU21D;63664;44.868;40.600;2023-05-01T04:07:10;11.15;99.88
75088;HTU21D;63664;44.868;40.600;2023-05-01T04:09:48;11.23;99.74
75088;HTU21D;63664;44.868;40.600;2023-05-01T04:12:14;11.27;99.67
75088;HTU21D;63664;44.868;40.600;2023-05-01T04:14:41;11.28;99.62
75088;HTU21D;63664;44.868;40.600;2023-05-01T04:17:10;11.30;99.61
75088;HTU21D;63664;44.868;40.600;2023-05-01T04:19:41;11.32;99.55
75088;HTU21D;63664;44.868;40.600;2023-05-01T04:22:11;11.36;99.49
75088;HTU21D;63664;44.868;40.600;2023-05-01T04:24:41;11.37;99.48
75088;HTU21D;63664;44.868;40.600;2023-05-01T04:27:10;11.40;99.42
75088;HTU21D;63664;44.868;40.600;2023-05-01T04:29:39;11.40;99.40
75088;HTU21D;63664;44.868;40.600;2023-05-01T04:32:07;11.43;99.39
75088;HTU21D;63664;44.868;40.600;2023-05-01T04:34:37;11.45;99.35
75088;HTU21D;63664;44.868;40.600;2023-05-01T04:37:03;11.48;99.27
75088;HTU21D;63664;44.868;40.600;2023-05-01T04:39:34;11.48;99.20
75088;HTU21D;63664;44.868;40.600;2023-05-01T04:42:04;11.49;99.24
75088;HTU21D;63664;44.868;40.600;2023-05-01T04:44:30;11.52;99.19
75088;HTU21D;63664;44.868;40.600;2023-05-01T04:47:06;11.56;99.16
75088;HTU21D;63664;44.868;40.600;2023-05-01T06:44:05;15.60;87.57
75088;HTU21D;63664;44.868;40.600;2023-05-01T06:46:34;15.51;87.51
75088;HTU21D;63664;44.868;40.600;2023-05-01T06:49:00;15.48;87.57
75088;HTU21D;63664;44.868;40.600;2023-05-01T06:51:27;15.56;87.12
75088;HTU21D;63664;44.868;40.600;2023-05-01T06:53:55;15.63;86.77
75088;HTU21D;63664;44.868;40.600;2023-05-01T06:56:24;15.82;86.17
75088;HTU21D;63664;44.868;40.600;2023-05-01T06:58:50;15.98;85.63
75088;HTU21D;63664;44.868;40.600;2023-05-01T07:01:19;16.10;85.16
75088;HTU21D;63664;44.868;40.600;2023-05-01T07:03:45;16.24;85.00
75088;HTU21D;63664;44.868;40.600;2023-05-01T07:06:14;16.41;84.49
75088;HTU21D;63664;44.868;40.600;2023-05-01T07:08:43;16.57;83.98
75088;HTU21D;63664;44.868;40.600;2023-05-01T07:11:10;16.65;83.67
75088;HTU21D;63664;44.868;40.600;2023-05-01T07:13:36;16.85;83.31
75088;HTU21D;63664;44.868;40.600;2023-05-01T07:16:05;16.95;82.73
75088;HTU21D;63664;44.868;40.600;2023-05-01T07:18:36;17.06;82.43
75088;HTU21D;63664;44.868;40.600;2023-05-01T07:21:05;17.17;82.07
75088;HTU21D;63664;44.868;40.600;2023-05-01T07:23:31;17.32;81.79
75088;HTU21D;63664;44.868;40.600;2023-05-01T07:25:57;17.49;81.18
75088;HTU21D;63664;44.868;40.600;2023-05-01T07:28:23;17.58;81.14
75088;HTU21D;63664;44.868;40.600;2023-05-01T07:30:50;17.72;80.59
75088;HTU21D;63664;44.868;40.600;2023-05-01T07:33:22;17.72;80.40
75088;HTU21D;63664;44.868;40.600;2023-05-01T07:35:51;17.72;80.42
75088;HTU21D;63664;44.868;40.600;2023-05-01T07:38:19;17.72;80.17
75088;HTU21D;63664;44.868;40.600;2023-05-01T07:40:49;17.78;80.09
75088;HTU21D;63664;44.868;40.600;2023-05-01T07:43:20;18.00;79.38
75088;HTU21D;63664;44.868;40.600;2023-05-01T07:46:02;18.19;79.00
75088;HTU21D;63664;44.868;40.600;2023-05-01T07:48:28;18.36;78.63
75088;HTU21D;63664;44.868;40.600;2023-05-01T07:50:54;18.33;78.14
75088;HTU21D;63664;44.868;40.600;2023-05-01T07:53:28;18.43;78.24
75088;HTU21D;63664;44.868;40.600;2023-05-01T07:56:04;18.59;77.85
75088;HTU21D;63664;44.868;40.600;2023-05-01T07:58:32;18.61;77.53
75088;HTU21D;63664;44.868;40.600;2023-05-01T08:00:59;18.66;77.42
75088;HTU21D;63664;44.868;40.600;2023-05-01T08:03:29;18.82;76.82
75088;HTU21D;63664;44.868;40.600;2023-05-01T08:05:56;18.83;76.51
75088;HTU21D;63664;44.868;40.600;2023-05-01T08:08:22;18.79;76.51
75088;HTU21D;63664;44.868;40.600;2023-05-01T08:10:50;18.84;76.42
75088;HTU21D;63664;44.868;40.600;2023-05-01T08:13:16;19.03;76.01
75088;HTU21D;63664;44.868;40.600;2023-05-01T08:15:46;19.17;75.78
75088;HTU21D;63664;44.868;40.600;2023-05-01T08:18:13;19.28;75.47
75088;HTU21D;63664;44.868;40.600;2023-05-01T08:20:49;19.44;75.10
75088;HTU21D;63664;44.868;40.600;2023-05-01T08:23:16;19.54;74.39
75088;HTU21D;63664;44.868;40.600;2023-05-01T08:25:42;19.40;74.50
75088;HTU21D;63664;44.868;40.600;2023-05-01T08:28:14;19.30;74.74
75088;HTU21D;63664;44.868;40.600;2023-05-01T08:30:44;19.28;74.76
75088;HTU21D;63664;44.868;40.600;2023-05-01T08:33:10;19.15;74.77
75088;HTU21D;63664;44.868;40.600;2023-05-01T08:35:36;18.95;75.12
75088;HTU21D;63664;44.868;40.600;2023-05-01T08:38:05;18.85;75.33
75088;HTU21D;63664;44.868;40.600;2023-05-01T08:40:35;18.73;75.48
75088;HTU21D;63664;44.868;40.600;2023-05-01T08:43:05;18.70;75.40
75088;HTU21D;63664;44.868;40.600;2023-05-01T08:45:33;18.79;75.19
75088;HTU21D;63664;44.868;40.600;2023-05-01T08:48:06;19.03;75.05
75088;HTU21D;63664;44.868;40.600;2023-05-01T08:50:38;19.28;74.20
75088;HTU21D;63664;44.868;40.600;2023-05-01T08:53:10;19.25;74.15
75088;HTU21D;63664;44.868;40.600;2023-05-01T08:55:39;19.20;74.23
75088;HTU21D;63664;44.868;40.600;2023-05-01T08:58:13;19.13;74.46
75088;HTU21D;63664;44.868;40.600;2023-05-01T09:00:40;19.09;74.64
75088;HTU21D;63664;44.868;40.600;2023-05-01T09:03:10;18.94;74.85
75088;HTU21D;63664;44.868;40.600;2023-05-01T09:05:38;18.78;75.36
75088;HTU21D;63664;44.868;40.600;2023-05-01T09:08:07;18.71;75.48
75088;HTU21D;63664;44.868;40.600;2023-05-01T09:10:40;18.68;75.50
75088;HTU21D;63664;44.868;40.600;2023-05-01T09:13:08;18.65;75.44
75088;HTU21D;63664;44.868;40.600;2023-05-01T09:15:34;18.55;75.57
75088;HTU21D;63664;44.868;40.600;2023-05-01T09:18:07;18.41;75.74
75088;HTU21D;63664;44.868;40.600;2023-05-01T09:20:33;18.39;75.79
75088;HTU21D;63664;44.868;40.600;2023-05-01T09:23:02;18.70;75.20
75088;HTU21D;63664;44.868;40.600;2023-05-01T09:25:33;18.93;74.45
75088;HTU21D;63664;44.868;40.600;2023-05-01T09:28:02;18.95;74.41
75088;HTU21D;63664;44.868;40.600;2023-05-01T09:30:33;18.83;74.35
75088;HTU21D;63664;44.868;40.600;2023-05-01T09:33:14;18.81;74.65
75088;HTU21D;63664;44.868;40.600;2023-05-01T09:35:55;18.80;74.45
75088;HTU21D;63664;44.868;40.600;2023-05-01T09:38:24;18.76;74.67
75088;HTU21D;63664;44.868;40.600;2023-05-01T09:41:02;18.71;74.55
75088;HTU21D;63664;44.868;40.600;2023-05-01T09:43:30;18.70;74.66
75088;HTU21D;63664;44.868;40.600;2023-05-01T09:46:05;18.76;74.51
75088;HTU21D;63664;44.868;40.600;2023-05-01T09:48:35;18.72;74.04
75088;HTU21D;63664;44.868;40.600;2023-05-01T09:51:24;18.55;74.18
75088;HTU21D;63664;44.868;40.600;2023-05-01T09:53:56;18.40;74.51
75088;HTU21D;63664;44.868;40.600;2023-05-01T09:56:30;18.26;74.68
75088;HTU21D;63664;44.868;40.600;2023-05-01T09:59:20;18.18;74.95
75088;HTU21D;63664;44.868;40.600;2023-05-01T10:01:46;18.15;74.94
75088;HTU21D;63664;44.868;40.600;2023-05-01T10:04:14;18.10;74.91
75088;HTU21D;63664;44.868;40.600;2023-05-01T10:06:41;17.99;74.97
75088;HTU21D;63664;44.868;40.600;2023-05-01T10:09:07;17.98;74.93
75088;HTU21D;63664;44.868;40.600;2023-05-01T10:11:52;17.94;74.99
75088;HTU21D;63664;44.868;40.600;2023-05-01T10:14:23;17.99;75.02
75088;HTU21D;63664;44.868;40.600;2023-05-01T10:16:54;18.06;75.09
75088;HTU21D;63664;44.868;40.600;2023-05-01T10:19:24;18.13;74.82
75088;HTU21D;63664;44.868;40.600;2023-05-01T10:21:50;18.20;74.80
75088;HTU21D;63664;44.868;40.600;2023-05-01T10:24:21;18.38;74.42
75088;HTU21D;63664;44.868;40.600;2023-05-01T10:26:50;18.48;74.06
75088;HTU21D;63664;44.868;40.600;2023-05-01T10:29:22;18.58;74.05
75088;HTU21D;63664;44.868;40.600;2023-05-01T10:31:49;18.67;73.99
75088;HTU21D;63664;44.868;40.600;2023-05-01T10:34:17;18.81;73.81
75088;HTU21D;63664;44.868;40.600;2023-05-01T10:37:00;19.02;73.48
75088;HTU21D;63664;44.868;40.600;2023-05-01T10:39:34;19.11;73.64
75088;HTU21D;63664;44.868;40.600;2023-05-01T10:42:04;19.24;73.38
75088;HTU21D;63664;44.868;40.600;2023-05-01T10:44:36;19.43;73.01
75088;HTU21D;63664;44.868;40.600;2023-05-01T10:50:13;19.27;73.23
75088;HTU21D;63664;44.868;40.600;2023-05-01T10:55:49;19.13;73.63
75088;HTU21D;63664;44.868;40.600;2023-05-01T11:01:39;18.72;74.47
75088;HTU21D;63664;44.868;40.600;2023-05-01T11:09:53;18.73;74.43
75088;HTU21D;63664;44.868;40.600;2023-05-01T11:15:35;18.61;74.41
75088;HTU21D;63664;44.868;40.600;2023-05-01T11:18:05;18.54;74.45
75088;HTU21D;63664;44.868;40.600;2023-05-01T11:23:01;18.56;74.37
75088;HTU21D;63664;44.868;40.600;2023-05-01T11:25:29;18.66;74.22
75088;HTU21D;63664;44.868;40.600;2023-05-01T11:28:06;18.82;73.93
75088;HTU21D;63664;44.868;40.600;2023-05-01T11:30:41;18.81;73.74
75088;HTU21D;63664;44.868;40.600;2023-05-01T11:33:07;18.68;73.86
75088;HTU21D;63664;44.868;40.600;2023-05-01T11:35:37;18.56;74.15
75088;HTU21D;63664;44.868;40.600;2023-05-01T11:38:16;18.51;74.15
75088;HTU21D;63664;44.868;40.600;2023-05-01T11:40:53;18.44;74.06
75088;HTU21D;63664;44.868;40.600;2023-05-01T11:43:25;18.44;74.01
75088;HTU21D;63664;44.868;40.600;2023-05-01T11:45:53;18.44;73.93
75088;HTU21D;63664;44.868;40.600;2023-05-01T11:48:22;18.35;74.03
75088;HTU21D;63664;44.868;40.600;2023-05-01T11:50:49;18.27;74.18
75088;HTU21D;63664;44.868;40.600;2023-05-01T11:53:18;18.19;74.28
75088;HTU21D;63664;44.868;40.600;2023-05-01T11:55:47;18.25;74.20
75088;HTU21D;63664;44.868;40.600;2023-05-01T11:58:14;18.35;74.10
75088;HTU21D;63664;44.868;40.600;2023-05-01T12:00:42;18.44;73.78
75088;HTU21D;63664;44.868;40.600;2023-05-01T12:03:16;18.64;73.41
75088;HTU21D;63664;44.868;40.600;2023-05-01T12:05:43;18.67;73.20
75088;HTU21D;63664;44.868;40.600;2023-05-01T12:08:19;18.66;73.31
75088;HTU21D;63664;44.868;40.600;2023-05-01T12:10:56;18.59;73.62
75088;HTU21D;63664;44.868;40.600;2023-05-01T12:13:23;18.55;73.65
75088;HTU21D;63664;44.868;40.600;2023-05-01T12:15:53;18.57;73.66
75088;HTU21D;63664;44.868;40.600;2023-05-01T12:18:20;18.69;73.42
75088;HTU21D;63664;44.868;40.600;2023-05-01T12:20:51;18.84;72.97
75088;HTU21D;63664;44.868;40.600;2023-05-01T12:23:34;18.84;72.89
75088;HTU21D;63664;44.868;40.600;2023-05-01T12:26:15;18.72;73.14
75088;HTU21D;63664;44.868;40.600;2023-05-01T12:29:05;18.58;73.24
75088;HTU21D;63664;44.868;40.600;2023-05-01T12:31:35;18.46;73.77
75088;HTU21D;63664;44.868;40.600;2023-05-01T12:34:08;18.40;73.76
75088;HTU21D;63664;44.868;40.600;2023-05-01T13:00:02;17.61;75.26
75088;HTU21D;63664;44.868;40.600;2023-05-01T13:02:33;17.48;75.70
75088;HTU21D;63664;44.868;40.600;2023-05-01T13:05:11;17.20;76.72
75088;HTU21D;63664;44.868;40.600;2023-05-01T13:07:45;16.93;77.53
75088;HTU21D;63664;44.868;40.600;2023-05-01T13:10:28;16.71;78.40
75088;HTU21D;63664;44.868;40.600;2023-05-01T13:12:59;16.51;79.05
75088;HTU21D;63664;44.868;40.600;2023-05-01T13:15:28;16.31;79.59
75088;HTU21D;63664;44.868;40.600;2023-05-01T13:18:05;16.14;80.17
75088;HTU21D;63664;44.868;40.600;2023-05-01T13:20:37;15.86;80.62
75088;HTU21D;63664;44.868;40.600;2023-05-01T13:23:09;15.61;81.32
75088;HTU21D;63664;44.868;40.600;2023-05-01T13:25:40;15.43;81.71
75088;HTU21D;63664;44.868;40.600;2023-05-01T13:28:07;15.28;82.01
75088;HTU21D;63664;44.868;40.600;2023-05-01T13:30:38;15.19;82.36
75088;HTU21D;63664;44.868;40.600;2023-05-01T13:33:09;15.13;82.55
75088;HTU21D;63664;44.868;40.600;2023-05-01T13:35:40;15.09;82.84
75088;HTU21D;63664;44.868;40.600;2023-05-01T13:38:10;15.04;82.97
75088;HTU21D;63664;44.868;40.600;2023-05-01T13:40:39;15.02;83.16
75088;HTU21D;63664;44.868;40.600;2023-05-01T13:43:13;14.99;83.45
75088;HTU21D;63664;44.868;40.600;2023-05-01T13:45:43;14.97;83.57
75088;HTU21D;63664;44.868;40.600;2023-05-01T13:48:09;14.92;83.92
75088;HTU21D;63664;44.868;40.600;2023-05-01T14:41:22;13.76;88.32
75088;HTU21D;63664;44.868;40.600;2023-05-01T14:43:50;13.65;88.64
75088;HTU21D;63664;44.868;40.600;2023-05-01T14:46:30;13.54;89.02
75088;HTU21D;63664;44.868;40.600;2023-05-01T14:48:59;13.44;89.19
75088;HTU21D;63664;44.868;40.600;2023-05-01T14:51:26;13.33;89.48
75088;HTU21D;63664;44.868;40.600;2023-05-01T14:53:53;13.25;89.67
75088;HTU21D;63664;44.868;40.600;2023-05-01T14:56:19;13.17;89.89
75088;HTU21D;63664;44.868;40.600;2023-05-01T14:58:46;13.09;90.06
75088;HTU21D;63664;44.868;40.600;2023-05-01T15:01:15;13.03;90.27
75088;HTU21D;63664;44.868;40.600;2023-05-01T15:03:45;12.97;90.34
75088;HTU21D;63664;44.868;40.600;2023-05-01T15:06:11;12.94;90.47
75088;HTU21D;63664;44.868;40.600;2023-05-01T15:08:42;12.89;90.55
75088;HTU21D;63664;44.868;40.600;2023-05-01T15:11:12;12.85;90.71
75088;HTU21D;63664;44.868;40.600;2023-05-01T15:13:39;12.80;90.81
75088;HTU21D;63664;44.868;40.600;2023-05-01T15:16:08;12.78;90.89
75088;HTU21D;63664;44.868;40.600;2023-05-01T15:18:37;12.77;90.89
75088;HTU21D;63664;44.868;40.600;2023-05-01T15:21:07;12.72;91.05
75088;HTU21D;63664;44.868;40.600;2023-05-01T15:23:35;12.70;91.19
75088;HTU21D;63664;44.868;40.600;2023-05-01T15:26:04;12.67;91.35
75088;HTU21D;63664;44.868;40.600;2023-05-01T15:28:30;12.66;91.35
75088;HTU21D;63664;44.868;40.600;2023-05-01T15:31:01;12.61;91.50
75088;HTU21D;63664;44.868;40.600;2023-05-01T15:33:33;12.59;91.64
75088;HTU21D;63664;44.868;40.600;2023-05-01T15:41:23;12.60;91.80
75088;HTU21D;63664;44.868;40.600;2023-05-01T15:43:52;12.62;91.89
75088;HTU21D;63664;44.868;40.600;2023-05-01T15:46:19;12.62;91.98
75088;HTU21D;63664;44.868;40.600;2023-05-01T15:48:48;12.61;92.06
75088;HTU21D;63664;44.868;40.600;2023-05-01T15:51:14;12.58;92.17
75088;HTU21D;63664;44.868;40.600;2023-05-01T15:53:40;12.59;92.27
75088;HTU21D;63664;44.868;40.600;2023-05-01T15:56:09;12.59;92.40
75088;HTU21D;63664;44.868;40.600;2023-05-01T15:58:35;12.56;92.52
75088;HTU21D;63664;44.868;40.600;2023-05-01T16:01:04;12.56;92.69
75088;HTU21D;63664;44.868;40.600;2023-05-01T16:03:33;12.51;92.75
75088;HTU21D;63664;44.868;40.600;2023-05-01T16:06:00;12.49;92.92
75088;HTU21D;63664;44.868;40.600;2023-05-01T16:08:28;12.50;92.99
75088;HTU21D;63664;44.868;40.600;2023-05-01T16:10:56;12.49;93.06
75088;HTU21D;63664;44.868;40.600;2023-05-01T16:13:26;12.50;93.14
75088;HTU21D;63664;44.868;40.600;2023-05-01T16:15:54;12.48;93.22
75088;HTU21D;63664;44.868;40.600;2023-05-01T16:18:23;12.46;93.33
75088;HTU21D;63664;44.868;40.600;2023-05-01T16:20:49;12.42;93.39
75088;HTU21D;63664;44.868;40.600;2023-05-01T16:23:19;12.36;93.55
75088;HTU21D;63664;44.868;40.600;2023-05-01T16:25:49;12.34;93.67
75088;HTU21D;63664;44.868;40.600;2023-05-01T16:28:18;12.31;93.75
75088;HTU21D;63664;44.868;40.600;2023-05-01T16:30:44;12.30;93.84
75088;HTU21D;63664;44.868;40.600;2023-05-01T16:33:16;12.28;93.98
75088;HTU21D;63664;44.868;40.600;2023-05-01T16:35:46;12.29;94.01
75088;HTU21D;63664;44.868;40.600;2023-05-01T16:38:17;12.28;94.08
75088;HTU21D;63664;44.868;40.600;2023-05-01T16:40:47;12.28;94.11
75088;HTU21D;63664;44.868;40.600;2023-05-01T16:43:13;12.26;94.17
75088;HTU21D;63664;44.868;40.600;2023-05-01T16:45:41;12.25;94.33
75088;HTU21D;63664;44.868;40.600;2023-05-01T16:48:08;12.23;94.36
75088;HTU21D;63664;44.868;40.600;2023-05-01T16:50:38;12.22;94.49
75088;HTU21D;63664;44.868;40.600;2023-05-01T16:53:08;12.20;94.52
75088;HTU21D;63664;44.868;40.600;2023-05-01T16:55:38;12.18;94.54
75088;HTU21D;63664;44.868;40.600;2023-05-01T16:58:04;12.18;94.65
75088;HTU21D;63664;44.868;40.600;2023-05-01T17:00:36;12.20;94.75
75088;HTU21D;63664;44.868;40.600;2023-05-01T17:03:04;12.19;94.75
75088;HTU21D;63664;44.868;40.600;2023-05-01T17:05:31;12.19;94.81
75088;HTU21D;63664;44.868;40.600;2023-05-01T17:07:59;12.19;94.87
75088;HTU21D;63664;44.868;40.600;2023-05-01T17:10:28;12.17;94.96
75088;HTU21D;63664;44.868;40.600;2023-05-01T17:12:57;12.12;95.08
75088;HTU21D;63664;44.868;40.600;2023-05-01T17:15:23;12.05;95.25
75088;HTU21D;63664;44.868;40.600;2023-05-01T17:17:50;12.02;95.44
75088;HTU21D;63664;44.868;40.600;2023-05-01T17:20:16;12.00;95.49
75088;HTU21D;63664;44.868;40.600;2023-05-01T17:22:42;12.00;95.52
75088;HTU21D;63664;44.868;40.600;2023-05-01T17:25:10;12.00;95.55
75088;HTU21D;63664;44.868;40.600;2023-05-01T17:27:37;11.98;95.61
75088;HTU21D;63664;44.868;40.600;2023-05-01T17:30:03;11.97;95.67
75088;HTU21D;63664;44.868;40.600;2023-05-01T17:32:33;11.96;95.70
75088;HTU21D;63664;44.868;40.600;2023-05-01T17:34:59;11.92;95.77
75088;HTU21D;63664;44.868;40.600;2023-05-01T17:37:28;11.88;95.95
75088;HTU21D;63664;44.868;40.600;2023-05-01T17:39:54;11.86;96.04
75088;HTU21D;63664;44.868;40.600;2023-05-01T17:42:23;11.87;96.17
75088;HTU21D;63664;44.868;40.600;2023-05-01T17:44:50;11.85;96.10
75088;HTU21D;63664;44.868;40.600;2023-05-01T17:47:19;11.82;96.21
75088;HTU21D;63664;44.868;40.600;2023-05-01T17:49:45;11.78;96.33
75088;HTU21D;63664;44.868;40.600;2023-05-01T17:52:11;11.76;96.36
75088;HTU21D;63664;44.868;40.600;2023-05-01T17:54:37;11.76;96.42
75088;HTU21D;63664;44.868;40.600;2023-05-01T17:57:04;11.76;96.49
75088;HTU21D;63664;44.868;40.600;2023-05-01T17:59:30;11.77;96.52
75088;HTU21D;63664;44.868;40.600;2023-05-01T18:01:59;11.77;96.55
75088;HTU21D;63664;44.868;40.600;2023-05-01T18:04:26;11.77;96.56
75088;HTU21D;63664;44.868;40.600;2023-05-01T18:06:52;11.75;96.62
75088;HTU21D;63664;44.868;40.600;2023-05-01T18:09:23;11.73;96.73
75088;HTU21D;63664;44.868;40.600;2023-05-01T18:11:49;11.69;96.83
75088;HTU21D;63664;44.868;40.600;2023-05-01T18:14:16;11.67;96.94
75088;HTU21D;63664;44.868;40.600;2023-05-01T18:16:42;11.62;97.03
75088;HTU21D;63664;44.868;40.600;2023-05-01T18:19:08;11.62;97.12
75088;HTU21D;63664;44.868;40.600;2023-05-01T18:21:35;11.61;97.15
75088;HTU21D;63664;44.868;40.600;2023-05-01T18:24:01;11.58;97.21
75088;HTU21D;63664;44.868;40.600;2023-05-01T18:26:31;11.56;97.21
75088;HTU21D;63664;44.868;40.600;2023-05-01T18:28:58;11.53;97.28
75088;HTU21D;63664;44.868;40.600;2023-05-01T18:31:25;11.54;97.31
75088;HTU21D;63664;44.868;40.600;2023-05-01T18:33:52;11.51;97.40
75088;HTU21D;63664;44.868;40.600;2023-05-01T18:36:18;11.47;97.47
75088;HTU21D;63664;44.868;40.600;2023-05-01T18:38:44;11.46;97.55
75088;HTU21D;63664;44.868;40.600;2023-05-01T18:41:11;11.45;97.65
75088;HTU21D;63664;44.868;40.600;2023-05-01T18:43:37;11.47;97.72
75088;HTU21D;63664;44.868;40.600;2023-05-01T18:46:03;11.46;97.74
75088;HTU21D;63664;44.868;40.600;2023-05-01T18:48:29;11.45;97.78
75088;HTU21D;63664;44.868;40.600;2023-05-01T18:50:56;11.46;97.83
75088;HTU21D;63664;44.868;40.600;2023-05-01T18:53:23;11.46;97.88
75088;HTU21D;63664;44.868;40.600;2023-05-01T18:55:50;11.47;97.89
75088;HTU21D;63664;44.868;40.600;2023-05-01T18:58:23;11.47;97.96
75088;HTU21D;63664;44.868;40.600;2023-05-01T19:00:50;11.46;97.95
75088;HTU21D;63664;44.868;40.600;2023-05-01T19:03:17;11.46;98.03
75088;HTU21D;63664;44.868;40.600;2023-05-01T19:05:44;11.48;98.03
75088;HTU21D;63664;44.868;40.600;2023-05-01T19:08:11;11.46;98.10
75088;HTU21D;63664;44.868;40.600;2023-05-01T19:10:37;11.45;98.22